sensor_id;sensor_type;location;lat;lon;timestamp;P1;durP1;ratioP1;P2;durP2;ratioP2
40955;SDS011;26687;48.254;11.454;2023-02-28T00:01:53;2.55;;;2.10;;
40955;SDS011;26687;48.254;11.454;2023-02-28T00:04:53;2.30;;;2.10;;
40955;SDS011;26687;48.254;11.454;2023-02-28T00:08:00;2.10;;;1.90;;
40955;SDS011;26687;48.254;11.454;2023-02-28T00:11:02;2.72;;;2.08;;
40955;SDS011;26687;48.254;11.454;2023-02-28T00:14:02;2.10;;;1.90;;
40955;SDS011;26687;48.254;11.454;2023-02-28T00:17:02;3.05;;;2.42;;
40955;SDS011;26687;48.254;11.454;2023-02-28T00:20:03;4.10;;;2.35;;
40955;SDS011;26687;48.254;11.454;2023-02-28T00:23:11;2.10;;;1.90;;
40955;SDS011;26687;48.254;11.454;2023-02-28T00:26:11;2.97;;;2.70;;
40955;SDS011;26687;48.254;11.454;2023-02-28T00:29:12;3.20;;;2.30;;
40955;SDS011;26687;48.254;11.454;2023-02-28T00:32:12;2.50;;;2.15;;
40955;SDS011;26687;48.254;11.454;2023-02-28T00:35:12;2.50;;;2.20;;
40955;SDS011;26687;48.254;11.454;2023-02-28T00:38:13;2.38;;;2.13;;
40955;SDS011;26687;48.254;11.454;2023-02-28T00:41:13;2.60;;;2.40;;
40955;SDS011;26687;48.254;11.454;2023-02-28T00:44:13;2.25;;;2.05;;
40955;SDS011;26687;48.254;11.454;2023-02-28T00:47:14;2.50;;;2.30;;
40955;SDS011;26687;48.254;11.454;2023-02-28T00:50:14;3.13;;;2.30;;
40955;SDS011;26687;48.254;11.454;2023-02-28T00:53:14;2.28;;;2.13;;
40955;SDS011;26687;48.254;11.454;2023-02-28T00:56:14;3.35;;;2.35;;
40955;SDS011;26687;48.254;11.454;2023-02-28T00:59:15;2.50;;;2.25;;
40955;SDS011;26687;48.254;11.454;2023-02-28T01:02:16;2.72;;;2.50;;
40955;SDS011;26687;48.254;11.454;2023-02-28T01:05:16;2.30;;;2.10;;
40955;SDS011;26687;48.254;11.454;2023-02-28T01:08:16;2.77;;;2.37;;
40955;SDS011;26687;48.254;11.454;2023-02-28T01:11:16;2.10;;;1.90;;
40955;SDS011;26687;48.254;11.454;2023-02-28T01:14:17;2.45;;;2.22;;
40955;SDS011;26687;48.254;11.454;2023-02-28T01:17:17;2.63;;;2.42;;
40955;SDS011;26687;48.254;11.454;2023-02-28T01:20:17;2.80;;;2.20;;
40955;SDS011;26687;48.254;11.454;2023-02-28T01:23:18;2.63;;;2.23;;
40955;SDS011;26687;48.254;11.454;2023-02-28T01:26:20;2.72;;;2.47;;
40955;SDS011;26687;48.254;11.454;2023-02-28T01:29:21;2.78;;;2.50;;
40955;SDS011;26687;48.254;11.454;2023-02-28T01:32:21;2.60;;;2.20;;
40955;SDS011;26687;48.254;11.454;2023-02-28T01:35:21;2.35;;;2.15;;
40955;SDS011;26687;48.254;11.454;2023-02-28T01:38:21;3.17;;;2.57;;
40955;SDS011;26687;48.254;11.454;2023-02-28T01:41:26;2.70;;;2.50;;
40955;SDS011;26687;48.254;11.454;2023-02-28T01:47:45;2.70;;;2.50;;
40955;SDS011;26687;48.254;11.454;2023-02-28T01:50:47;2.60;;;2.40;;
40955;SDS011;26687;48.254;11.454;2023-02-28T01:53:49;2.40;;;2.20;;
40955;SDS011;26687;48.254;11.454;2023-02-28T01:59:55;2.92;;;2.58;;
40955;SDS011;26687;48.254;11.454;2023-02-28T02:02:59;3.00;;;2.70;;
40955;SDS011;26687;48.254;11.454;2023-02-28T02:06:00;2.55;;;2.22;;
40955;SDS011;26687;48.254;11.454;2023-02-28T02:09:01;3.33;;;2.38;;
40955;SDS011;26687;48.254;11.454;2023-02-28T02:12:05;2.53;;;2.33;;
40955;SDS011;26687;48.254;11.454;2023-02-28T02:15:11;2.47;;;2.28;;
40955;SDS011;26687;48.254;11.454;2023-02-28T02:27:39;2.72;;;2.30;;
40955;SDS011;26687;48.254;11.454;2023-02-28T02:31:04;2.70;;;2.50;;
40955;SDS011;26687;48.254;11.454;2023-02-28T02:46:29;2.90;;;2.70;;
40955;SDS011;26687;48.254;11.454;2023-02-28T02:49:31;3.00;;;2.70;;
40955;SDS011;26687;48.254;11.454;2023-02-28T02:52:40;2.58;;;2.38;;
40955;SDS011;26687;48.254;11.454;2023-02-28T02:55:43;3.15;;;2.85;;
40955;SDS011;26687;48.254;11.454;2023-02-28T02:58:44;5.82;;;4.85;;
40955;SDS011;26687;48.254;11.454;2023-02-28T03:01:50;3.78;;;3.38;;
40955;SDS011;26687;48.254;11.454;2023-02-28T03:04:52;3.00;;;2.70;;
40955;SDS011;26687;48.254;11.454;2023-02-28T03:07:53;3.25;;;2.95;;
40955;SDS011;26687;48.254;11.454;2023-02-28T03:10:57;2.93;;;2.73;;
40955;SDS011;26687;48.254;11.454;2023-02-28T03:20:54;3.40;;;2.88;;
40955;SDS011;26687;48.254;11.454;2023-02-28T03:23:38;3.08;;;2.80;;
40955;SDS011;26687;48.254;11.454;2023-02-28T03:26:43;3.38;;;3.08;;
40955;SDS011;26687;48.254;11.454;2023-02-28T03:29:50;3.17;;;2.90;;
40955;SDS011;26687;48.254;11.454;2023-02-28T03:32:59;3.30;;;3.00;;
40955;SDS011;26687;48.254;11.454;2023-02-28T03:36:20;3.97;;;3.28;;
40955;SDS011;26687;48.254;11.454;2023-02-28T03:39:34;3.97;;;3.58;;
40955;SDS011;26687;48.254;11.454;2023-02-28T03:45:35;3.38;;;3.08;;
40955;SDS011;26687;48.254;11.454;2023-02-28T03:48:47;3.50;;;3.20;;
40955;SDS011;26687;48.254;11.454;2023-02-28T03:51:48;3.40;;;3.10;;
40955;SDS011;26687;48.254;11.454;2023-02-28T03:54:50;3.28;;;3.00;;
40955;SDS011;26687;48.254;11.454;2023-02-28T04:01:08;3.40;;;3.10;;
40955;SDS011;26687;48.254;11.454;2023-02-28T04:04:09;3.53;;;3.22;;
40955;SDS011;26687;48.254;11.454;2023-02-28T04:07:10;4.10;;;3.53;;
40955;SDS011;26687;48.254;11.454;2023-02-28T04:10:11;4.05;;;3.65;;
40955;SDS011;26687;48.254;11.454;2023-02-28T04:13:11;3.80;;;3.50;;
40955;SDS011;26687;48.254;11.454;2023-02-28T04:16:11;3.80;;;3.50;;
40955;SDS011;26687;48.254;11.454;2023-02-28T04:19:12;4.35;;;3.95;;
40955;SDS011;26687;48.254;11.454;2023-02-28T04:22:12;4.35;;;3.95;;
40955;SDS011;26687;48.254;11.454;2023-02-28T04:25:13;4.07;;;3.78;;
40955;SDS011;26687;48.254;11.454;2023-02-28T04:28:13;4.30;;;3.90;;
40955;SDS011;26687;48.254;11.454;2023-02-28T04:31:13;4.50;;;4.10;;
40955;SDS011;26687;48.254;11.454;2023-02-28T04:34:14;4.03;;;3.72;;
40955;SDS011;26687;48.254;11.454;2023-02-28T04:37:14;4.30;;;3.90;;
40955;SDS011;26687;48.254;11.454;2023-02-28T04:40:14;4.30;;;3.90;;
40955;SDS011;26687;48.254;11.454;2023-02-28T04:43:14;4.00;;;3.70;;
40955;SDS011;26687;48.254;11.454;2023-02-28T04:46:14;3.90;;;3.60;;
40955;SDS011;26687;48.254;11.454;2023-02-28T04:49:15;4.47;;;4.07;;
40955;SDS011;26687;48.254;11.454;2023-02-28T04:52:15;4.93;;;4.47;;
40955;SDS011;26687;48.254;11.454;2023-02-28T04:55:15;4.82;;;4.43;;
40955;SDS011;26687;48.254;11.454;2023-02-28T04:58:15;5.10;;;4.43;;
40955;SDS011;26687;48.254;11.454;2023-02-28T05:04:25;4.75;;;4.35;;
40955;SDS011;26687;48.254;11.454;2023-02-28T05:07:25;4.87;;;4.47;;
40955;SDS011;26687;48.254;11.454;2023-02-28T05:10:25;5.40;;;4.43;;
40955;SDS011;26687;48.254;11.454;2023-02-28T05:13:26;4.53;;;4.13;;
40955;SDS011;26687;48.254;11.454;2023-02-28T05:16:26;4.80;;;4.40;;
40955;SDS011;26687;48.254;11.454;2023-02-28T05:19:26;5.25;;;4.80;;
40955;SDS011;26687;48.254;11.454;2023-02-28T05:22:26;5.20;;;4.80;;
40955;SDS011;26687;48.254;11.454;2023-02-28T05:25:27;5.28;;;4.78;;
40955;SDS011;26687;48.254;11.454;2023-02-28T05:28:27;4.90;;;4.50;;
40955;SDS011;26687;48.254;11.454;2023-02-28T05:31:27;5.15;;;4.75;;
40955;SDS011;26687;48.254;11.454;2023-02-28T05:34:27;5.60;;;5.10;;
40955;SDS011;26687;48.254;11.454;2023-02-28T05:37:27;5.38;;;4.70;;
40955;SDS011;26687;48.254;11.454;2023-02-28T05:40:27;5.55;;;5.05;;
40955;SDS011;26687;48.254;11.454;2023-02-28T05:43:28;5.45;;;5.05;;
40955;SDS011;26687;48.254;11.454;2023-02-28T05:46:28;6.05;;;5.50;;
40955;SDS011;26687;48.254;11.454;2023-02-28T05:49:28;5.95;;;5.35;;
40955;SDS011;26687;48.254;11.454;2023-02-28T05:52:28;5.57;;;4.90;;
40955;SDS011;26687;48.254;11.454;2023-02-28T05:55:30;5.88;;;5.30;;
40955;SDS011;26687;48.254;11.454;2023-02-28T05:58:30;6.13;;;5.53;;
40955;SDS011;26687;48.254;11.454;2023-02-28T06:01:37;6.43;;;5.82;;
40955;SDS011;26687;48.254;11.454;2023-02-28T06:04:38;5.80;;;5.30;;
40955;SDS011;26687;48.254;11.454;2023-02-28T06:07:38;5.60;;;5.10;;
40955;SDS011;26687;48.254;11.454;2023-02-28T06:10:38;5.75;;;4.72;;
40955;SDS011;26687;48.254;11.454;2023-02-28T06:13:39;6.18;;;5.68;;
40955;SDS011;26687;48.254;11.454;2023-02-28T06:16:39;5.88;;;5.38;;
40955;SDS011;26687;48.254;11.454;2023-02-28T06:19:39;5.97;;;5.47;;
40955;SDS011;26687;48.254;11.454;2023-02-28T06:22:41;5.88;;;5.32;;
40955;SDS011;26687;48.254;11.454;2023-02-28T06:25:44;6.28;;;5.47;;
40955;SDS011;26687;48.254;11.454;2023-02-28T06:28:44;4.60;;;4.20;;
40955;SDS011;26687;48.254;11.454;2023-02-28T06:31:45;5.60;;;5.10;;
40955;SDS011;26687;48.254;11.454;2023-02-28T06:34:45;5.72;;;5.22;;
40955;SDS011;26687;48.254;11.454;2023-02-28T06:37:45;6.30;;;5.80;;
40955;SDS011;26687;48.254;11.454;2023-02-28T06:40:52;7.05;;;6.35;;
40955;SDS011;26687;48.254;11.454;2023-02-28T06:43:53;6.40;;;5.90;;
40955;SDS011;26687;48.254;11.454;2023-02-28T06:46:53;6.60;;;6.00;;
40955;SDS011;26687;48.254;11.454;2023-02-28T06:49:53;5.77;;;5.37;;
40955;SDS011;26687;48.254;11.454;2023-02-28T06:52:53;6.30;;;5.70;;
40955;SDS011;26687;48.254;11.454;2023-02-28T06:55:55;6.90;;;6.30;;
40955;SDS011;26687;48.254;11.454;2023-02-28T06:58:55;6.35;;;5.85;;
40955;SDS011;26687;48.254;11.454;2023-02-28T07:01:56;6.47;;;5.97;;
40955;SDS011;26687;48.254;11.454;2023-02-28T07:04:56;6.15;;;5.55;;
40955;SDS011;26687;48.254;11.454;2023-02-28T07:07:56;6.35;;;5.85;;
40955;SDS011;26687;48.254;11.454;2023-02-28T07:10:57;6.87;;;6.17;;
40955;SDS011;26687;48.254;11.454;2023-02-28T07:13:57;6.85;;;6.22;;
40955;SDS011;26687;48.254;11.454;2023-02-28T07:16:57;6.15;;;5.55;;
40955;SDS011;26687;48.254;11.454;2023-02-28T07:19:57;6.47;;;5.88;;
40955;SDS011;26687;48.254;11.454;2023-02-28T07:22:58;7.05;;;6.45;;
40955;SDS011;26687;48.254;11.454;2023-02-28T07:25:58;6.50;;;6.00;;
40955;SDS011;26687;48.254;11.454;2023-02-28T07:28:58;6.77;;;6.17;;
40955;SDS011;26687;48.254;11.454;2023-02-28T07:31:59;6.47;;;5.97;;
40955;SDS011;26687;48.254;11.454;2023-02-28T07:34:59;6.82;;;6.22;;
40955;SDS011;26687;48.254;11.454;2023-02-28T07:37:59;7.45;;;6.85;;
40955;SDS011;26687;48.254;11.454;2023-02-28T07:41:00;7.43;;;6.75;;
40955;SDS011;26687;48.254;11.454;2023-02-28T07:44:00;6.88;;;6.38;;
40955;SDS011;26687;48.254;11.454;2023-02-28T07:47:00;7.10;;;6.37;;
40955;SDS011;26687;48.254;11.454;2023-02-28T07:50:00;7.03;;;6.43;;
40955;SDS011;26687;48.254;11.454;2023-02-28T07:53:00;7.80;;;7.10;;
40955;SDS011;26687;48.254;11.454;2023-02-28T07:56:01;6.87;;;6.30;;
40955;SDS011;26687;48.254;11.454;2023-02-28T07:59:02;7.97;;;7.28;;
40955;SDS011;26687;48.254;11.454;2023-02-28T08:02:02;7.60;;;7.00;;
40955;SDS011;26687;48.254;11.454;2023-02-28T08:05:02;8.68;;;7.88;;
40955;SDS011;26687;48.254;11.454;2023-02-28T08:08:02;8.53;;;7.70;;
40955;SDS011;26687;48.254;11.454;2023-02-28T08:11:03;8.15;;;7.35;;
40955;SDS011;26687;48.254;11.454;2023-02-28T08:14:03;7.83;;;7.23;;
40955;SDS011;26687;48.254;11.454;2023-02-28T08:17:03;8.77;;;7.93;;
40955;SDS011;26687;48.254;11.454;2023-02-28T08:20:04;8.20;;;7.43;;
40955;SDS011;26687;48.254;11.454;2023-02-28T08:23:04;8.13;;;7.43;;
40955;SDS011;26687;48.254;11.454;2023-02-28T08:26:04;7.90;;;7.13;;
40955;SDS011;26687;48.254;11.454;2023-02-28T08:29:05;8.10;;;7.30;;
40955;SDS011;26687;48.254;11.454;2023-02-28T08:32:05;8.03;;;7.33;;
40955;SDS011;26687;48.254;11.454;2023-02-28T08:35:06;8.15;;;7.45;;
40955;SDS011;26687;48.254;11.454;2023-02-28T08:38:06;8.05;;;7.32;;
40955;SDS011;26687;48.254;11.454;2023-02-28T08:41:07;8.27;;;7.57;;
40955;SDS011;26687;48.254;11.454;2023-02-28T08:44:09;8.35;;;7.65;;
40955;SDS011;26687;48.254;11.454;2023-02-28T08:47:09;8.07;;;7.37;;
40955;SDS011;26687;48.254;11.454;2023-02-28T08:50:09;8.80;;;8.00;;
40955;SDS011;26687;48.254;11.454;2023-02-28T08:53:09;8.55;;;7.85;;
40955;SDS011;26687;48.254;11.454;2023-02-28T08:56:12;8.45;;;7.65;;
40955;SDS011;26687;48.254;11.454;2023-02-28T08:59:12;8.10;;;7.40;;
40955;SDS011;26687;48.254;11.454;2023-02-28T09:02:13;8.50;;;7.80;;
40955;SDS011;26687;48.254;11.454;2023-02-28T09:05:14;8.45;;;7.45;;
40955;SDS011;26687;48.254;11.454;2023-02-28T09:08:14;8.77;;;7.97;;
40955;SDS011;26687;48.254;11.454;2023-02-28T09:11:14;8.80;;;8.00;;
40955;SDS011;26687;48.254;11.454;2023-02-28T09:14:18;8.57;;;7.78;;
40955;SDS011;26687;48.254;11.454;2023-02-28T09:17:18;8.07;;;7.32;;
40955;SDS011;26687;48.254;11.454;2023-02-28T09:20:18;4.70;;;4.35;;
40955;SDS011;26687;48.254;11.454;2023-02-28T09:23:19;8.18;;;7.53;;
40955;SDS011;26687;48.254;11.454;2023-02-28T09:26:23;8.93;;;8.10;;
40955;SDS011;26687;48.254;11.454;2023-02-28T09:29:24;8.00;;;7.25;;
40955;SDS011;26687;48.254;11.454;2023-02-28T09:32:24;8.55;;;7.85;;
40955;SDS011;26687;48.254;11.454;2023-02-28T09:35:24;8.70;;;7.97;;
40955;SDS011;26687;48.254;11.454;2023-02-28T09:38:27;9.38;;;8.57;;
40955;SDS011;26687;48.254;11.454;2023-02-28T09:41:27;8.48;;;7.78;;
40955;SDS011;26687;48.254;11.454;2023-02-28T09:44:36;8.55;;;7.85;;
40955;SDS011;26687;48.254;11.454;2023-02-28T09:47:38;10.18;;;9.18;;
40955;SDS011;26687;48.254;11.454;2023-02-28T09:50:45;9.68;;;8.88;;
40955;SDS011;26687;48.254;11.454;2023-02-28T09:53:46;9.18;;;8.38;;
40955;SDS011;26687;48.254;11.454;2023-02-28T09:56:49;9.70;;;8.80;;
40955;SDS011;26687;48.254;11.454;2023-02-28T10:03:30;8.43;;;7.75;;
40955;SDS011;26687;48.254;11.454;2023-02-28T10:06:33;8.82;;;8.13;;
40955;SDS011;26687;48.254;11.454;2023-02-28T10:09:35;8.95;;;8.15;;
40955;SDS011;26687;48.254;11.454;2023-02-28T10:12:36;8.68;;;7.88;;
40955;SDS011;26687;48.254;11.454;2023-02-28T10:15:38;8.30;;;7.63;;
40955;SDS011;26687;48.254;11.454;2023-02-28T10:18:54;7.88;;;7.25;;
40955;SDS011;26687;48.254;11.454;2023-02-28T10:24:55;7.78;;;7.18;;
40955;SDS011;26687;48.254;11.454;2023-02-28T10:28:10;8.27;;;7.50;;
40955;SDS011;26687;48.254;11.454;2023-02-28T10:31:11;8.70;;;7.93;;
40955;SDS011;26687;48.254;11.454;2023-02-28T10:34:14;7.60;;;7.00;;
40955;SDS011;26687;48.254;11.454;2023-02-28T10:37:14;7.80;;;7.10;;
40955;SDS011;26687;48.254;11.454;2023-02-28T10:43:21;8.30;;;7.63;;
40955;SDS011;26687;48.254;11.454;2023-02-28T10:46:22;9.60;;;8.77;;
40955;SDS011;26687;48.254;11.454;2023-02-28T10:49:25;9.33;;;8.53;;
40955;SDS011;26687;48.254;11.454;2023-02-28T10:52:36;8.85;;;8.02;;
40955;SDS011;26687;48.254;11.454;2023-02-28T10:55:37;8.43;;;7.72;;
40955;SDS011;26687;48.254;11.454;2023-02-28T11:01:56;8.85;;;8.05;;
40955;SDS011;26687;48.254;11.454;2023-02-28T11:04:56;7.97;;;7.37;;
40955;SDS011;26687;48.254;11.454;2023-02-28T11:07:59;8.70;;;7.93;;
40955;SDS011;26687;48.254;11.454;2023-02-28T11:11:03;8.55;;;7.78;;
40955;SDS011;26687;48.254;11.454;2023-02-28T11:14:04;8.03;;;7.33;;
40955;SDS011;26687;48.254;11.454;2023-02-28T11:17:19;8.98;;;8.07;;
40955;SDS011;26687;48.254;11.454;2023-02-28T11:20:21;9.00;;;7.75;;
40955;SDS011;26687;48.254;11.454;2023-02-28T11:23:22;8.77;;;8.00;;
40955;SDS011;26687;48.254;11.454;2023-02-28T11:29:46;8.65;;;7.90;;
40955;SDS011;26687;48.254;11.454;2023-02-28T11:32:49;7.70;;;7.00;;
40955;SDS011;26687;48.254;11.454;2023-02-28T11:35:50;8.50;;;7.70;;
40955;SDS011;26687;48.254;11.454;2023-02-28T11:38:51;7.63;;;6.88;;
40955;SDS011;26687;48.254;11.454;2023-02-28T11:45:15;8.15;;;7.35;;
40955;SDS011;26687;48.254;11.454;2023-02-28T11:48:24;7.93;;;7.22;;
40955;SDS011;26687;48.254;11.454;2023-02-28T11:51:32;7.82;;;7.05;;
40955;SDS011;26687;48.254;11.454;2023-02-28T11:54:35;7.63;;;7.03;;
40955;SDS011;26687;48.254;11.454;2023-02-28T12:04:33;7.78;;;7.18;;
40955;SDS011;26687;48.254;11.454;2023-02-28T12:11:06;7.53;;;6.90;;
40955;SDS011;26687;48.254;11.454;2023-02-28T12:26:46;7.60;;;7.00;;
40955;SDS011;26687;48.254;11.454;2023-02-28T12:35:57;7.60;;;6.90;;
40955;SDS011;26687;48.254;11.454;2023-02-28T12:39:33;7.32;;;6.72;;
40955;SDS011;26687;48.254;11.454;2023-02-28T12:42:29;7.40;;;6.80;;
40955;SDS011;26687;48.254;11.454;2023-02-28T12:45:40;7.43;;;6.72;;
40955;SDS011;26687;48.254;11.454;2023-02-28T12:48:42;7.82;;;7.15;;
40955;SDS011;26687;48.254;11.454;2023-02-28T12:51:43;7.35;;;6.68;;
40955;SDS011;26687;48.254;11.454;2023-02-28T12:54:46;8.10;;;7.50;;
40955;SDS011;26687;48.254;11.454;2023-02-28T12:57:50;7.82;;;7.13;;
40955;SDS011;26687;48.254;11.454;2023-02-28T13:07:33;8.00;;;6.97;;
40955;SDS011;26687;48.254;11.454;2023-02-28T13:10:37;8.07;;;7.45;;
40955;SDS011;26687;48.254;11.454;2023-02-28T13:13:38;7.32;;;6.72;;
40955;SDS011;26687;48.254;11.454;2023-02-28T13:22:52;7.90;;;7.20;;
40955;SDS011;26687;48.254;11.454;2023-02-28T13:25:53;7.85;;;7.25;;
40955;SDS011;26687;48.254;11.454;2023-02-28T13:38:12;8.23;;;7.53;;
40955;SDS011;26687;48.254;11.454;2023-02-28T13:45:18;7.35;;;6.68;;
40955;SDS011;26687;48.254;11.454;2023-02-28T13:48:00;6.85;;;6.35;;
40955;SDS011;26687;48.254;11.454;2023-02-28T13:51:16;7.85;;;7.20;;
40955;SDS011;26687;48.254;11.454;2023-02-28T13:54:28;7.28;;;6.70;;
40955;SDS011;26687;48.254;11.454;2023-02-28T14:00:52;7.32;;;6.65;;
40955;SDS011;26687;48.254;11.454;2023-02-28T14:06:57;7.33;;;6.73;;
40955;SDS011;26687;48.254;11.454;2023-02-28T14:09:59;7.32;;;6.72;;
40955;SDS011;26687;48.254;11.454;2023-02-28T14:16:35;7.15;;;6.55;;
40955;SDS011;26687;48.254;11.454;2023-02-28T14:19:36;6.20;;;5.70;;
40955;SDS011;26687;48.254;11.454;2023-02-28T14:23:00;8.05;;;7.38;;
40955;SDS011;26687;48.254;11.454;2023-02-28T14:29:14;8.35;;;7.57;;
40955;SDS011;26687;48.254;11.454;2023-02-28T14:32:41;7.13;;;6.55;;
40955;SDS011;26687;48.254;11.454;2023-02-28T14:35:57;6.35;;;5.75;;
40955;SDS011;26687;48.254;11.454;2023-02-28T14:39:03;7.07;;;6.38;;
40955;SDS011;26687;48.254;11.454;2023-02-28T14:42:24;7.13;;;6.53;;
40955;SDS011;26687;48.254;11.454;2023-02-28T14:45:24;7.13;;;6.53;;
40955;SDS011;26687;48.254;11.454;2023-02-28T14:48:25;7.20;;;6.68;;
40955;SDS011;26687;48.254;11.454;2023-02-28T14:51:26;7.75;;;7.00;;
40955;SDS011;26687;48.254;11.454;2023-02-28T14:54:26;7.63;;;7.07;;
40955;SDS011;26687;48.254;11.454;2023-02-28T14:57:31;7.53;;;6.93;;
40955;SDS011;26687;48.254;11.454;2023-02-28T15:00:36;7.65;;;7.05;;
40955;SDS011;26687;48.254;11.454;2023-02-28T15:03:38;8.00;;;7.30;;
40955;SDS011;26687;48.254;11.454;2023-02-28T15:06:38;8.05;;;7.45;;
40955;SDS011;26687;48.254;11.454;2023-02-28T15:09:39;7.97;;;7.28;;
40955;SDS011;26687;48.254;11.454;2023-02-28T15:12:39;8.88;;;7.70;;
40955;SDS011;26687;48.254;11.454;2023-02-28T15:15:42;6.97;;;6.43;;
40955;SDS011;26687;48.254;11.454;2023-02-28T15:18:46;7.60;;;6.90;;
40955;SDS011;26687;48.254;11.454;2023-02-28T15:21:49;7.30;;;6.70;;
40955;SDS011;26687;48.254;11.454;2023-02-28T15:24:50;7.40;;;6.80;;
40955;SDS011;26687;48.254;11.454;2023-02-28T15:27:53;8.02;;;7.32;;
40955;SDS011;26687;48.254;11.454;2023-02-28T15:30:58;8.50;;;7.75;;
40955;SDS011;26687;48.254;11.454;2023-02-28T15:34:03;7.68;;;7.07;;
40955;SDS011;26687;48.254;11.454;2023-02-28T15:40:25;6.72;;;6.15;;
40955;SDS011;26687;48.254;11.454;2023-02-28T15:43:29;7.53;;;6.93;;
40955;SDS011;26687;48.254;11.454;2023-02-28T15:46:30;7.40;;;6.80;;
40955;SDS011;26687;48.254;11.454;2023-02-28T15:49:36;5.60;;;5.05;;
40955;SDS011;26687;48.254;11.454;2023-02-28T15:52:38;7.38;;;6.78;;
40955;SDS011;26687;48.254;11.454;2023-02-28T15:58:41;7.57;;;6.93;;
40955;SDS011;26687;48.254;11.454;2023-02-28T16:01:41;8.20;;;7.53;;
40955;SDS011;26687;48.254;11.454;2023-02-28T16:08:06;8.35;;;7.65;;
40955;SDS011;26687;48.254;11.454;2023-02-28T16:11:11;8.15;;;7.45;;
40955;SDS011;26687;48.254;11.454;2023-02-28T16:14:15;8.18;;;7.50;;
40955;SDS011;26687;48.254;11.454;2023-02-28T16:17:20;8.00;;;7.25;;
40955;SDS011;26687;48.254;11.454;2023-02-28T16:20:22;8.23;;;7.50;;
40955;SDS011;26687;48.254;11.454;2023-02-28T16:23:22;7.90;;;7.25;;
40955;SDS011;26687;48.254;11.454;2023-02-28T16:26:23;8.15;;;7.43;;
40955;SDS011;26687;48.254;11.454;2023-02-28T16:32:24;8.25;;;7.63;;
40955;SDS011;26687;48.254;11.454;2023-02-28T16:35:24;8.13;;;7.32;;
40955;SDS011;26687;48.254;11.454;2023-02-28T16:38:24;8.10;;;7.40;;
40955;SDS011;26687;48.254;11.454;2023-02-28T16:41:25;8.23;;;7.40;;
40955;SDS011;26687;48.254;11.454;2023-02-28T16:47:26;8.43;;;7.72;;
40955;SDS011;26687;48.254;11.454;2023-02-28T16:50:27;9.57;;;8.67;;
40955;SDS011;26687;48.254;11.454;2023-02-28T16:53:27;9.57;;;8.77;;
40955;SDS011;26687;48.254;11.454;2023-02-28T16:56:28;10.45;;;9.55;;
40955;SDS011;26687;48.254;11.454;2023-02-28T16:59:28;9.90;;;9.00;;
40955;SDS011;26687;48.254;11.454;2023-02-28T17:02:29;9.02;;;8.23;;
40955;SDS011;26687;48.254;11.454;2023-02-28T17:05:32;8.80;;;8.02;;
40955;SDS011;26687;48.254;11.454;2023-02-28T17:08:33;9.40;;;8.50;;
40955;SDS011;26687;48.254;11.454;2023-02-28T17:11:33;10.37;;;9.37;;
40955;SDS011;26687;48.254;11.454;2023-02-28T17:14:33;9.07;;;8.27;;
40955;SDS011;26687;48.254;11.454;2023-02-28T17:17:33;10.00;;;9.02;;
40955;SDS011;26687;48.254;11.454;2023-02-28T17:20:33;10.17;;;9.10;;
40955;SDS011;26687;48.254;11.454;2023-02-28T17:23:34;5.53;;;5.03;;
40955;SDS011;26687;48.254;11.454;2023-02-28T17:26:34;10.13;;;9.15;;
40955;SDS011;26687;48.254;11.454;2023-02-28T17:29:34;10.50;;;9.60;;
40955;SDS011;26687;48.254;11.454;2023-02-28T17:32:34;10.55;;;9.65;;
40955;SDS011;26687;48.254;11.454;2023-02-28T17:35:34;10.70;;;9.70;;
40955;SDS011;26687;48.254;11.454;2023-02-28T17:38:35;10.25;;;9.35;;
40955;SDS011;26687;48.254;11.454;2023-02-28T17:41:35;10.27;;;9.38;;
40955;SDS011;26687;48.254;11.454;2023-02-28T17:44:35;10.55;;;9.55;;
40955;SDS011;26687;48.254;11.454;2023-02-28T17:47:35;9.80;;;8.90;;
40955;SDS011;26687;48.254;11.454;2023-02-28T17:50:35;10.07;;;9.13;;
40955;SDS011;26687;48.254;11.454;2023-02-28T17:53:35;10.15;;;9.15;;
40955;SDS011;26687;48.254;11.454;2023-02-28T17:56:36;9.77;;;8.98;;
40955;SDS011;26687;48.254;11.454;2023-02-28T17:59:36;10.45;;;9.45;;
40955;SDS011;26687;48.254;11.454;2023-02-28T18:02:36;9.68;;;8.77;;
40955;SDS011;26687;48.254;11.454;2023-02-28T18:05:36;11.00;;;10.00;;
40955;SDS011;26687;48.254;11.454;2023-02-28T18:08:36;11.18;;;10.18;;
40955;SDS011;26687;48.254;11.454;2023-02-28T18:11:37;10.93;;;10.02;;
40955;SDS011;26687;48.254;11.454;2023-02-28T18:14:47;10.52;;;9.63;;
40955;SDS011;26687;48.254;11.454;2023-02-28T18:17:48;10.15;;;9.35;;
40955;SDS011;26687;48.254;11.454;2023-02-28T18:20:48;10.15;;;9.20;;
40955;SDS011;26687;48.254;11.454;2023-02-28T18:23:49;10.32;;;9.40;;
40955;SDS011;26687;48.254;11.454;2023-02-28T18:26:51;10.52;;;9.57;;
40955;SDS011;26687;48.254;11.454;2023-02-28T18:29:51;10.40;;;9.40;;
40955;SDS011;26687;48.254;11.454;2023-02-28T18:32:52;10.20;;;9.30;;
40955;SDS011;26687;48.254;11.454;2023-02-28T18:35:55;11.27;;;10.17;;
40955;SDS011;26687;48.254;11.454;2023-02-28T18:38:55;10.43;;;9.55;;
40955;SDS011;26687;48.254;11.454;2023-02-28T18:41:55;10.68;;;9.75;;
40955;SDS011;26687;48.254;11.454;2023-02-28T18:44:55;11.52;;;10.52;;
40955;SDS011;26687;48.254;11.454;2023-02-28T18:47:56;10.63;;;9.73;;
40955;SDS011;26687;48.254;11.454;2023-02-28T18:50:56;10.35;;;9.45;;
40955;SDS011;26687;48.254;11.454;2023-02-28T18:53:57;10.85;;;9.95;;
40955;SDS011;26687;48.254;11.454;2023-02-28T18:56:57;10.75;;;9.70;;
40955;SDS011;26687;48.254;11.454;2023-02-28T18:59:58;11.57;;;10.10;;
40955;SDS011;26687;48.254;11.454;2023-02-28T19:02:58;10.65;;;9.75;;
40955;SDS011;26687;48.254;11.454;2023-02-28T19:05:59;10.83;;;9.93;;
40955;SDS011;26687;48.254;11.454;2023-02-28T19:09:00;11.48;;;10.48;;
40955;SDS011;26687;48.254;11.454;2023-02-28T19:12:00;11.70;;;10.70;;
40955;SDS011;26687;48.254;11.454;2023-02-28T19:15:01;11.05;;;10.10;;
40955;SDS011;26687;48.254;11.454;2023-02-28T19:18:01;11.23;;;10.23;;
40955;SDS011;26687;48.254;11.454;2023-02-28T19:21:01;10.77;;;9.77;;
40955;SDS011;26687;48.254;11.454;2023-02-28T19:24:01;11.05;;;10.05;;
40955;SDS011;26687;48.254;11.454;2023-02-28T19:27:02;10.80;;;9.80;;
40955;SDS011;26687;48.254;11.454;2023-02-28T19:30:02;10.80;;;9.90;;
40955;SDS011;26687;48.254;11.454;2023-02-28T19:33:03;11.32;;;10.30;;
40955;SDS011;26687;48.254;11.454;2023-02-28T19:36:03;10.38;;;9.48;;
40955;SDS011;26687;48.254;11.454;2023-02-28T19:39:04;10.50;;;9.60;;
40955;SDS011;26687;48.254;11.454;2023-02-28T19:42:04;10.85;;;9.88;;
40955;SDS011;26687;48.254;11.454;2023-02-28T19:45:04;11.30;;;10.30;;
40955;SDS011;26687;48.254;11.454;2023-02-28T19:48:05;11.30;;;10.30;;
40955;SDS011;26687;48.254;11.454;2023-02-28T19:51:09;10.98;;;9.98;;
40955;SDS011;26687;48.254;11.454;2023-02-28T19:54:10;10.63;;;9.73;;
40955;SDS011;26687;48.254;11.454;2023-02-28T19:57:10;11.25;;;10.25;;
40955;SDS011;26687;48.254;11.454;2023-02-28T20:00:11;10.77;;;9.77;;
40955;SDS011;26687;48.254;11.454;2023-02-28T20:03:13;11.45;;;10.45;;
40955;SDS011;26687;48.254;11.454;2023-02-28T20:06:13;11.23;;;10.30;;
40955;SDS011;26687;48.254;11.454;2023-02-28T20:09:14;10.95;;;10.05;;
40955;SDS011;26687;48.254;11.454;2023-02-28T20:12:15;11.38;;;10.32;;
40955;SDS011;26687;48.254;11.454;2023-02-28T20:15:16;11.98;;;10.77;;
40955;SDS011;26687;48.254;11.454;2023-02-28T20:18:16;11.43;;;10.43;;
40955;SDS011;26687;48.254;11.454;2023-02-28T20:21:17;10.05;;;9.25;;
40955;SDS011;26687;48.254;11.454;2023-02-28T20:24:17;10.93;;;9.93;;